HUAL Seoul — LADO6 — position and weather

sailwx.info

Track history (hours):
 
Tides and Currents Weather Stations Pressure Air Temp Water Temp Dewpoint Dewpoint Depression Visibility Wind Speed Wind Dir Waves Ship Positions

HUAL Seoul

Last reported at 2015-Mar-13 11:29 UTC. Time now 2015-Mar-27 01:55 UTC.
Position N 36°25' E 014°30'.
Warning: this ship's position is 13 days out of date.

Type: Cargo ship. MMSI: 257496000.

Date/timePositionNaut miles runAvg speedWind from/ knotsBaromVisibWave heightAir tempDewpointWater temp
2015-Mar-13 11:29N 36°25' E 014°30'1716.6
2015-Mar-13 10:29N 36°30' E 014°10'1617.0
2015-Mar-13 09:33N 36°34' E 013°52'36816.7
2015-Mar-12 11:31N 38°03' E 006°23'8417.0
2015-Mar-12 06:33N 38°10' E 004°36'1717.0
2015-Mar-12 05:33N 38°11' E 004°15'2416.8
2015-Mar-12 04:08N 38°13' E 003°45'1016.8
2015-Mar-12 03:33N 38°14' E 003°32'1716.8
2015-Mar-12 02:33N 38°16' E 003°11'1717.2
2015-Mar-12 01:33N 38°17' E 002°49'1716.6
2015-Mar-12 00:33N 38°18' E 002°28'1716.8
2015-Mar-11 23:33N 38°20' E 002°06'1716.8
2015-Mar-11 22:33N 38°21' E 001°45'1717.2
2015-Mar-11 21:33N 38°23' E 001°23'1716.5
2015-Mar-11 20:33N 38°33' E 001°06'1716.9
2015-Mar-11 19:33N 38°44' E 000°50'1717.0
2015-Mar-11 18:33N 38°55' E 000°34'1717.1
2015-Mar-11 17:33N 39°06' E 000°17'2217.0
2015-Mar-11 16:17N 39°21' W 000°03'1215.5
2015-Mar-11 15:32N 39°25' W 000°17'2 1.7
2015-Mar-11 14:33N 39°26' W 000°18'0 0.0
2015-Mar-11 13:33N 39°26' W 000°18'0 0.0
2015-Mar-11 12:33N 39°26' W 000°18'0 0.0
2015-Mar-11 11:33N 39°26' W 000°18'0 0.0
2015-Mar-11 10:33N 39°26' W 000°18'0 0.0
2015-Mar-11 09:33N 39°26' W 000°18'0 0.0
2015-Mar-11 08:33N 39°26' W 000°18'0 0.0
2015-Mar-11 07:33N 39°26' W 000°18'0 0.0
2015-Mar-11 06:33N 39°26' W 000°18'3 2.6
2015-Mar-11 05:33N 39°25' W 000°16'3 2.9
2015-Mar-11 04:33N 39°25' W 000°12'1511.2
2015-Mar-11 03:12N 39°28' E 000°07'4211.4
2015-Mar-10 23:33N 39°43' E 000°58'1312.8
2015-Mar-10 22:33N 39°55' E 001°05'1312.7
2015-Mar-10 21:33N 40°06' E 001°14'1312.8
2015-Mar-10 20:33N 40°16' E 001°23'1312.9
2015-Mar-10 19:33N 40°27' E 001°32'1312.7
2015-Mar-10 18:33N 40°38' E 001°40'1312.7
2015-Mar-10 17:33N 40°49' E 001°49'1212.4
2015-Mar-10 16:33N 40°60' E 001°57'1313.1
2015-Mar-10 15:33N 41°11' E 002°06'10 9.4
2015-Mar-10 14:32N 41°20' E 002°09'0 0.4
2015-Mar-10 13:27N 41°20' E 002°09'0 0.0
2015-Mar-10 12:24N 41°20' E 002°09'0 0.0
2015-Mar-10 11:33N 41°20' E 002°09'0 0.0
2015-Mar-10 10:21N 41°20' E 002°09'0 0.0
2015-Mar-10 09:27N 41°20' E 002°09'0 0.0
2015-Mar-10 08:15N 41°20' E 002°09'0 0.0
2015-Mar-10 07:21N 41°20' E 002°09'0 0.0
2015-Mar-10 06:15N 41°20' E 002°09'1 0.9
2015-Mar-10 04:32N 41°19' E 002°10'6 5.7
2015-Mar-10 03:31N 41°13' E 002°11'1313.8
2015-Mar-10 02:33N 41°01' E 002°02'1514.9
2015-Mar-10 01:33N 40°49' E 001°53'1515.0
2015-Mar-10 00:33N 40°35' E 001°44'1515.0
2015-Mar-09 23:33N 40°22' E 001°35'1515.0
2015-Mar-09 22:33N 40°08' E 001°26'1514.8
2015-Mar-09 21:33N 39°55' E 001°17'1514.7
2015-Mar-09 20:33N 39°42' E 001°08'1515.0
2015-Mar-09 19:33N 39°29' E 000°59'1515.0
2015-Mar-09 18:34N 39°16' E 000°50'1515.0
2015-Mar-09 17:33N 39°02' E 000°41'3115.1
2015-Mar-09 15:31N 38°35' E 000°23'1515.3
2015-Mar-09 14:33N 38°23' E 000°13'1615.6
2015-Mar-09 13:33N 38°10' E 000°01'1515.2
2015-Mar-09 12:33N 37°57' W 000°09'1515.4
2015-Mar-09 11:33N 37°44' W 000°20'1515.2
2015-Mar-09 10:33N 37°32' W 000°31'1514.9
2015-Mar-09 09:33N 37°22' W 000°44'1515.1
2015-Mar-09 08:33N 37°12' W 000°59'1717.5
2015-Mar-09 07:33N 37°01' W 001°16'2215.8
2015-Mar-09 06:11N 36°46' W 001°36'17814.7
2015-Mar-08 18:06N 35°60' W 005°09'916.3
2015-Mar-08 17:33N 35°59' W 005°20'3315.4
2015-Mar-08 15:24N 35°54' W 006°01'2915.8
2015-Mar-08 13:33N 35°54' W 006°37'1616.0
2015-Mar-08 12:34N 35°54' W 006°56'1815.8
2015-Mar-08 11:24N 35°54' W 007°19'1315.6
2015-Mar-08 10:33N 35°55' W 007°35'1917.0
2015-Mar-08 09:24N 36°01' W 007°58'1517.4
2015-Mar-08 08:33N 36°06' W 008°15'1817.6
2015-Mar-08 07:32N 36°12' W 008°36'1717.5
2015-Mar-08 06:33N 36°17' W 008°57'1717.5
2015-Mar-08 05:33N 36°23' W 009°17'1717.3
2015-Mar-08 04:33N 36°28' W 009°38'1717.2
2015-Mar-08 03:34N 36°33' W 009°58'1717.2
2015-Mar-08 02:34N 36°38' W 010°19'1717.3
2015-Mar-08 01:34N 36°42' W 010°40'1717.0
2015-Mar-08 00:33N 36°46' W 011°00'1817.3
2015-Mar-07 23:30N 36°50' W 011°23'1617.4
2015-Mar-07 22:33N 36°53' W 011°42'1717.1
2015-Mar-07 21:33N 36°58' W 012°03'1716.8
2015-Mar-07 20:33N 37°01' W 012°24'1717.0
2015-Mar-07 19:33N 37°05' W 012°45'1717.3
2015-Mar-07 18:33N 37°09' W 013°06'51216.9
2015-Mar-06 12:12N 38°60' W 023°40'1317.0
2015-Mar-06 11:25N 39°02' W 023°57'1517.1
2015-Mar-06 10:31N 39°05' W 024°16'1917.0
2015-Mar-06 09:23N 39°08' W 024°41'1416.8
2015-Mar-06 08:33N 39°11' W 024°59'1716.9
2015-Mar-06 07:34N 39°14' W 025°20'1716.9
2015-Mar-06 06:33N 39°17' W 025°42'3416.9
2015-Mar-06 04:33N 39°24' W 026°25'1717.2
2015-Mar-06 03:33N 39°27' W 026°46'1717.4
2015-Mar-06 02:33N 39°30' W 027°09'1717.3
2015-Mar-06 01:33N 39°33' W 027°31'1817.6
2015-Mar-06 00:33N 39°36' W 027°53'1717.3
2015-Mar-05 23:33N 39°40' W 028°15'1817.6
2015-Mar-05 22:34N 39°43' W 028°37'1817.5
2015-Mar-05 21:33N 39°46' W 028°60'1817.7
2015-Mar-05 20:33N 39°49' W 029°22'1716.8
2015-Mar-05 19:34N 39°53' W 029°44'1716.7
2015-Mar-05 18:33N 39°55' W 030°05'3816.4
2015-Mar-05 16:15N 39°55' W 030°55'1116.5
2015-Mar-05 15:33N 39°55' W 031°10'1816.3
2015-Mar-05 14:26N 39°55' W 031°33'1616.5
2015-Mar-05 13:27N 39°55' W 031°54'  
Track history (hours):
 
Tides and Currents Weather Stations Pressure Air Temp Water Temp Dewpoint Dewpoint Depression Visibility Wind Speed Wind Dir Waves Ship Positions

HUAL Seoul

Last reported at 2015-Mar-13 11:29 UTC. Time now 2015-Mar-27 01:55 UTC.
Position N 36°25' E 014°30'.
Warning: this ship's position is 13 days out of date.

Type: Cargo ship. MMSI: 257496000.

Date/timePositionNaut miles runAvg speedWind from/ knotsBaromVisibWave heightAir tempDewpointWater temp
2015-Mar-13 11:29N 36°25' E 014°30'1716.6
2015-Mar-13 10:29N 36°30' E 014°10'1617.0
2015-Mar-13 09:33N 36°34' E 013°52'36816.7
2015-Mar-12 11:31N 38°03' E 006°23'8417.0
2015-Mar-12 06:33N 38°10' E 004°36'1717.0
2015-Mar-12 05:33N 38°11' E 004°15'2416.8
2015-Mar-12 04:08N 38°13' E 003°45'1016.8
2015-Mar-12 03:33N 38°14' E 003°32'1716.8
2015-Mar-12 02:33N 38°16' E 003°11'1717.2
2015-Mar-12 01:33N 38°17' E 002°49'1716.6
2015-Mar-12 00:33N 38°18' E 002°28'1716.8
2015-Mar-11 23:33N 38°20' E 002°06'1716.8
2015-Mar-11 22:33N 38°21' E 001°45'1717.2
2015-Mar-11 21:33N 38°23' E 001°23'1716.5
2015-Mar-11 20:33N 38°33' E 001°06'1716.9
2015-Mar-11 19:33N 38°44' E 000°50'1717.0
2015-Mar-11 18:33N 38°55' E 000°34'1717.1
2015-Mar-11 17:33N 39°06' E 000°17'2217.0
2015-Mar-11 16:17N 39°21' W 000°03'1215.5
2015-Mar-11 15:32N 39°25' W 000°17'2 1.7
2015-Mar-11 14:33N 39°26' W 000°18'0 0.0
2015-Mar-11 13:33N 39°26' W 000°18'0 0.0
2015-Mar-11 12:33N 39°26' W 000°18'0 0.0
2015-Mar-11 11:33N 39°26' W 000°18'0 0.0
2015-Mar-11 10:33N 39°26' W 000°18'0 0.0
2015-Mar-11 09:33N 39°26' W 000°18'0 0.0
2015-Mar-11 08:33N 39°26' W 000°18'0 0.0
2015-Mar-11 07:33N 39°26' W 000°18'0 0.0
2015-Mar-11 06:33N 39°26' W 000°18'3 2.6
2015-Mar-11 05:33N 39°25' W 000°16'3 2.9
2015-Mar-11 04:33N 39°25' W 000°12'1511.2
2015-Mar-11 03:12N 39°28' E 000°07'4211.4
2015-Mar-10 23:33N 39°43' E 000°58'1312.8
2015-Mar-10 22:33N 39°55' E 001°05'1312.7
2015-Mar-10 21:33N 40°06' E 001°14'1312.8
2015-Mar-10 20:33N 40°16' E 001°23'1312.9
2015-Mar-10 19:33N 40°27' E 001°32'1312.7
2015-Mar-10 18:33N 40°38' E 001°40'1312.7
2015-Mar-10 17:33N 40°49' E 001°49'1212.4
2015-Mar-10 16:33N 40°60' E 001°57'1313.1
2015-Mar-10 15:33N 41°11' E 002°06'10 9.4
2015-Mar-10 14:32N 41°20' E 002°09'0 0.4
2015-Mar-10 13:27N 41°20' E 002°09'0 0.0
2015-Mar-10 12:24N 41°20' E 002°09'0 0.0
2015-Mar-10 11:33N 41°20' E 002°09'0 0.0
2015-Mar-10 10:21N 41°20' E 002°09'0 0.0
2015-Mar-10 09:27N 41°20' E 002°09'0 0.0
2015-Mar-10 08:15N 41°20' E 002°09'0 0.0
2015-Mar-10 07:21N 41°20' E 002°09'0 0.0
2015-Mar-10 06:15N 41°20' E 002°09'1 0.9
2015-Mar-10 04:32N 41°19' E 002°10'6 5.7
2015-Mar-10 03:31N 41°13' E 002°11'1313.8
2015-Mar-10 02:33N 41°01' E 002°02'1514.9
2015-Mar-10 01:33N 40°49' E 001°53'1515.0
2015-Mar-10 00:33N 40°35' E 001°44'1515.0
2015-Mar-09 23:33N 40°22' E 001°35'1515.0
2015-Mar-09 22:33N 40°08' E 001°26'1514.8
2015-Mar-09 21:33N 39°55' E 001°17'1514.7
2015-Mar-09 20:33N 39°42' E 001°08'1515.0
2015-Mar-09 19:33N 39°29' E 000°59'1515.0
2015-Mar-09 18:34N 39°16' E 000°50'1515.0
2015-Mar-09 17:33N 39°02' E 000°41'3115.1
2015-Mar-09 15:31N 38°35' E 000°23'1515.3
2015-Mar-09 14:33N 38°23' E 000°13'1615.6
2015-Mar-09 13:33N 38°10' E 000°01'1515.2
2015-Mar-09 12:33N 37°57' W 000°09'1515.4
2015-Mar-09 11:33N 37°44' W 000°20'1515.2
2015-Mar-09 10:33N 37°32' W 000°31'1514.9
2015-Mar-09 09:33N 37°22' W 000°44'1515.1
2015-Mar-09 08:33N 37°12' W 000°59'1717.5
2015-Mar-09 07:33N 37°01' W 001°16'2215.8
2015-Mar-09 06:11N 36°46' W 001°36'17814.7
2015-Mar-08 18:06N 35°60' W 005°09'916.3
2015-Mar-08 17:33N 35°59' W 005°20'3315.4
2015-Mar-08 15:24N 35°54' W 006°01'2915.8
2015-Mar-08 13:33N 35°54' W 006°37'1616.0
2015-Mar-08 12:34N 35°54' W 006°56'1815.8
2015-Mar-08 11:24N 35°54' W 007°19'1315.6
2015-Mar-08 10:33N 35°55' W 007°35'1917.0
2015-Mar-08 09:24N 36°01' W 007°58'1517.4
2015-Mar-08 08:33N 36°06' W 008°15'1817.6
2015-Mar-08 07:32N 36°12' W 008°36'1717.5
2015-Mar-08 06:33N 36°17' W 008°57'1717.5
2015-Mar-08 05:33N 36°23' W 009°17'1717.3
2015-Mar-08 04:33N 36°28' W 009°38'1717.2
2015-Mar-08 03:34N 36°33' W 009°58'1717.2
2015-Mar-08 02:34N 36°38' W 010°19'1717.3
2015-Mar-08 01:34N 36°42' W 010°40'1717.0
2015-Mar-08 00:33N 36°46' W 011°00'1817.3
2015-Mar-07 23:30N 36°50' W 011°23'1617.4
2015-Mar-07 22:33N 36°53' W 011°42'1717.1
2015-Mar-07 21:33N 36°58' W 012°03'1716.8
2015-Mar-07 20:33N 37°01' W 012°24'1717.0
2015-Mar-07 19:33N 37°05' W 012°45'1717.3
2015-Mar-07 18:33N 37°09' W 013°06'51216.9
2015-Mar-06 12:12N 38°60' W 023°40'1317.0
2015-Mar-06 11:25N 39°02' W 023°57'1517.1
2015-Mar-06 10:31N 39°05' W 024°16'1917.0
2015-Mar-06 09:23N 39°08' W 024°41'1416.8
2015-Mar-06 08:33N 39°11' W 024°59'1716.9
2015-Mar-06 07:34N 39°14' W 025°20'1716.9
2015-Mar-06 06:33N 39°17' W 025°42'3416.9
2015-Mar-06 04:33N 39°24' W 026°25'1717.2
2015-Mar-06 03:33N 39°27' W 026°46'1717.4
2015-Mar-06 02:33N 39°30' W 027°09'1717.3
2015-Mar-06 01:33N 39°33' W 027°31'1817.6
2015-Mar-06 00:33N 39°36' W 027°53'1717.3
2015-Mar-05 23:33N 39°40' W 028°15'1817.6
2015-Mar-05 22:34N 39°43' W 028°37'1817.5
2015-Mar-05 21:33N 39°46' W 028°60'1817.7
2015-Mar-05 20:33N 39°49' W 029°22'1716.8
2015-Mar-05 19:34N 39°53' W 029°44'1716.7
2015-Mar-05 18:33N 39°55' W 030°05'3816.4
2015-Mar-05 16:15N 39°55' W 030°55'1116.5
2015-Mar-05 15:33N 39°55' W 031°10'1816.3
2015-Mar-05 14:26N 39°55' W 031°33'1616.5
2015-Mar-05 13:27N 39°55' W 031°54'  

Dump ship's entire track history